This is the latest recevied weather packets stored in our database for station/object HA6IFZ-10. If no packets are shown the sender has not sent any weather packets the latest 1 day(s).
| Time | Temp. | Humidity | Pressure | Rain* | Wind** | Luminosity | Snow |
|---|---|---|---|---|---|---|---|
| 1778099996 | 17.22° C | 63% | 1018.7 hPa | - | - | - | - |
| 1778092795 | 18.33° C | 54% | 1018.3 hPa | - | - | - | - |
| 1778091895 | 20° C | 47% | 1018.1 hPa | - | - | - | - |
| 1778090995 | 21.11° C | 43% | 1017.9 hPa | - | - | - | - |
| 1778081994 | 25° C | 32% | 1018.1 hPa | - | - | - | - |
| 1778081094 | 25.56° C | 31% | 1018.1 hPa | - | - | - | - |
| 1778080194 | 25° C | 32% | 1018.2 hPa | - | - | - | - |
| 1778076593 | 24.44° C | 33% | 1018.6 hPa | - | - | - | - |
| 1778072993 | 26.11° C | 32% | 1018.9 hPa | - | - | - | - |
| 1778072093 | 25.56° C | 32% | 1019 hPa | - | - | - | - |
| 1778071193 | 25.56° C | 31% | 1019.2 hPa | - | - | - | - |
| 1778065792 | 24.44° C | 38% | 1019.6 hPa | - | - | - | - |
| 1778064892 | 24.44° C | 39% | 1019.6 hPa | - | - | - | - |
| 1778063992 | 23.33° C | 40% | 1019.9 hPa | - | - | - | - |
| 1778063092 | 23.89° C | 41% | 1019.9 hPa | - | - | - | - |
| 1778058592 | 22.22° C | 46% | 1020 hPa | - | - | - | - |
| 1778057692 | 22.78° C | 47% | 1020 hPa | - | - | - | - |
| 1778055892 | 21.67° C | 49% | 1019.9 hPa | - | - | - | - |
| 1778054992 | 21.11° C | 50% | 1019.8 hPa | - | - | - | - |
| 1778054092 | 21.11° C | 50% | 1019.8 hPa | - | - | - | - |
| 1778053192 | 20.56° C | 50% | 1019.8 hPa | - | - | - | - |
| 1778048691 | 20.56° C | 50% | 1020 hPa | - | - | - | - |
| 1778047790 | 21.11° C | 47% | 1020.1 hPa | - | - | - | - |
| 1778046890 | 20.56° C | 48% | 1019.9 hPa | - | - | - | - |
| 1778045990 | 25.56° C | 35% | 1019.8 hPa | - | - | - | - |
* Rain since midnight (hover to see other rain measurements)
** Current wind speed in m/s (hover to see current wind gust speed)